Latest Coastal Weather Observations for Centre Island

IDD60701

Issued at 3:45 am CST Saturday 25 October 2014 (issued every 10 minutes, with the page automatically refreshed every 10 minutes)

About coastal observations | Map of coastal stations | Coastal observations for NT | Marine services | Other Formats
Station Details ID: 014703 Name: CENTRE ISLAND Lat: -15.74 Lon: 136.82 Height: 12.2 m
Data from the previous 72 hours. | See also: Recent months at Centre Island
Date/Time
CST
Temp

°C
Wind Pressure Rain
since 9am
mm
Weather Cloud Vis
km
Sea
Height
m
Swell
Dir
 
Speed
knots
Gust
knots
hPa Trend Height
m
Period
s
Dir
25/03:30am 24.5 WSW 9 11 1012.6 - 0.0 - - - - - - -
25/03:00am 25.1 WSW 7 11 1012.5 - 0.0 - - - - - - -
25/02:30am 23.8 WSW 5 7 1012.6 - 0.0 - - - - - - -
25/02:00am 23.2 W 4 5 1012.8 - 0.0 - - - - - - -
25/01:30am 23.2 WSW 3 4 1013.4 - 0.0 - - - - - - -
25/01:00am 23.5 NW 4 5 1013.5 - 0.0 - - - - - - -
25/12:30am 23.4 NNW 3 4 1014.0 - 0.0 - - - - - - -
25/12:00am 23.6 NNW 3 4 1014.3 - 0.0 - - - - - - -
 
Date/Time
CST
Temp

°C
Wind Pressure Rain
since 9am
mm
Weather Cloud Vis
km
Sea
Height
m
Swell
Dir
 
Speed
knots
Gust
knots
hPa Trend Height
m
Period
s
Dir
24/11:30pm 24.0 NNW 5 6 1014.4 - 0.0 - - - - - - -
24/11:00pm 24.9 NNW 4 5 1014.6 - 0.0 - - - - - - -
24/10:30pm 25.7 NNE 6 7 1014.9 - 0.0 - - - - - - -
24/10:00pm 25.7 NNE 8 11 1014.9 - 0.0 - - - - - - -
24/09:30pm 25.9 ENE 9 12 1015.0 - 0.0 - - - - - - -
24/09:00pm 26.2 ENE 12 15 1015.0 - 0.0 - - - - - - -
24/08:30pm 26.3 ENE 13 16 1014.6 - 0.0 - - - - - - -
24/08:00pm 26.5 ENE 13 16 1014.1 - 0.0 - - - - - - -
24/07:30pm 26.5 NE 12 16 1013.7 - 0.0 - - - - - - -
24/07:00pm 26.6 ENE 12 15 1013.3 - 0.0 - - - - - - -
24/06:30pm 26.9 NE 12 16 1012.9 - 0.0 - - - - - - -
24/06:00pm 27.4 NNE 12 15 1012.7 - 0.0 - - - - - - -
24/05:30pm 28.1 NNE 11 14 1012.3 - 0.0 - - - - - - -
24/05:00pm 28.7 NNE 12 16 1012.2 - 0.0 - - - - - - -
24/04:30pm 29.3 NNE 12 16 1012.2 - 0.0 - - - - - - -
24/04:00pm 30.1 NNE 11 15 1012.3 - 0.0 - - - - - - -
24/03:30pm 30.3 NNE 12 16 1012.7 - 0.0 - - - - - - -
24/03:00pm 30.8 NNE 12 17 1012.9 - 0.0 - - - - - - -
24/02:30pm 30.5 NNE 13 17 1013.2 - 0.0 - - - - - - -
24/02:00pm 30.0 NE 13 19 1013.6 - 0.0 - - - - - - -
24/01:30pm 31.2 NNE 13 18 1014.0 - 0.0 - - - - - - -
24/01:00pm 31.9 NNE 12 16 1014.5 - 0.0 - - - - - - -
24/12:30pm 32.5 NNE 12 16 1015.0 - 0.0 - - - - - - -
24/12:00pm 31.1 NE 14 18 1015.4 - 0.0 - - - - - - -
24/11:30am 31.0 NE 16 19 1015.7 - 0.0 - - - - - - -
24/11:00am 30.7 ENE 14 17 1015.8 - 0.0 - - - - - - -
24/10:30am 31.5 ENE 12 16 1015.8 - 0.0 - - - - - - -
24/10:00am 30.9 ENE 13 16 1016.0 - 0.0 - - - - - - -
24/09:30am 29.7 ESE 9 11 1016.2 - 0.0 - - - - - - -
24/09:00am 28.2 E 7 9 1016.1 - 0.0 - - - - - - -
24/08:30am 27.7 ESE 7 8 1015.8 - 0.0 - - - - - - -
24/08:00am 26.9 ESE 9 11 1015.8 - 0.0 - - - - - - -
24/07:30am 25.9 SSW 9 11 1014.6 - 0.0 - - - - - - -
24/07:00am 25.2 S 10 13 1014.3 - 0.0 - - - - - - -
24/06:30am 25.0 SSW 9 11 1013.9 - 0.0 - - - - - - -
24/06:00am 24.5 SW 9 11 1013.5 - 0.0 - - - - - - -
24/05:30am 24.5 WSW 8 10 1013.2 - 0.0 - - - - - - -
24/05:00am 24.7 WSW 8 10 1012.9 - 0.0 - - - - - - -
24/04:30am 24.5 SW 7 9 1012.7 - 0.0 - - - - - - -
24/04:00am 24.3 W 5 6 1012.5 - 0.0 - - - - - - -
24/03:30am 23.8 W 3 5 1012.4 - 0.0 - - - - - - -
24/03:00am 23.4 WNW 3 4 1012.4 - 0.0 - - - - - - -
24/02:30am 23.5 WNW 3 4 1012.7 - 0.0 - - - - - - -
24/02:00am 23.9 WNW 3 4 1013.0 - 0.0 - - - - - - -
24/01:30am 23.9 NW 4 5 1013.2 - 0.0 - - - - - - -
24/01:00am 23.9 NW 4 4 1013.6 - 0.0 - - - - - - -
24/12:30am 24.4 NNW 5 6 1013.9 - 0.0 - - - - - - -
24/12:00am 25.0 N 4 5 1014.2 - 0.0 - - - - - - -
 
Date/Time
CST
Temp

°C
Wind Pressure Rain
since 9am
mm
Weather Cloud Vis
km
Sea
Height
m
Swell
Dir
 
Speed
knots
Gust
knots
hPa Trend Height
m
Period
s
Dir
23/11:30pm 26.0 NNE 5 8 1014.4 - 0.0 - - - - - - -
23/11:00pm 26.4 NE 9 11 1014.5 - 0.0 - - - - - - -
23/10:30pm 26.4 NNE 8 11 1014.7 - 0.0 - - - - - - -
23/10:00pm 26.5 NNE 8 11 1014.6 - 0.0 - - - - - - -
23/09:30pm 26.3 NE 9 11 1014.3 - 0.0 - - - - - - -
23/09:00pm 26.2 NE 7 9 1014.2 - 0.0 - - - - - - -
23/08:30pm 26.4 ENE 9 11 1014.0 - 0.0 - - - - - - -
23/08:00pm 26.4 ENE 10 12 1013.8 - 0.0 - - - - - - -
23/07:30pm 26.7 ENE 11 15 1013.6 - 0.0 - - - - - - -
23/07:00pm 26.9 ENE 13 16 1013.2 - 0.0 - - - - - - -
23/06:30pm 27.1 ENE 13 15 1012.9 - 0.0 - - - - - - -
23/06:00pm 27.5 ENE 13 16 1012.6 - 0.0 - - - - - - -
23/05:30pm 28.1 NE 14 18 1012.2 - 0.0 - - - - - - -
23/05:00pm 28.5 NE 15 18 1011.9 - 0.0 - - - - - - -
23/04:30pm 29.2 NE 14 19 1011.9 - 0.0 - - - - - - -
23/04:00pm 29.5 NE 16 20 1011.9 - 0.0 - - - - - - -
23/03:30pm 30.1 NE 16 21 1012.0 - 0.0 - - - - - - -
23/03:00pm 30.9 NE 13 17 1012.3 - 0.0 - - - - - - -
23/02:30pm 30.5 NE 12 16 1012.7 - 0.0 - - - - - - -
23/02:00pm 31.8 NNE 11 15 1013.0 - 0.0 - - - - - - -
23/01:30pm 31.9 NNE 12 16 1013.2 - 0.0 - - - - - - -
23/01:00pm 32.0 NNE 11 14 1013.5 - 0.0 - - - - - - -
23/12:30pm 31.3 NE 13 16 1013.8 - 0.0 - - - - - - -
23/12:00pm 31.7 NE 13 17 1014.3 - 0.0 - - - - - - -
23/11:30am 31.6 NE 12 16 1014.9 - 0.0 - - - - - - -
23/11:00am 31.3 NE 14 19 1015.2 - 0.0 - - - - - - -
23/10:30am 31.0 ENE 13 17 1015.4 - 0.0 - - - - - - -
23/10:00am 31.0 ENE 15 20 1015.6 - 0.0 - - - - - - -
23/09:30am 30.4 E 16 21 1015.6 - 0.0 - - - - - - -
23/09:00am 27.8 E 13 16 1015.8 - 0.0 - - - - - - -
23/08:30am 26.8 S 7 9 1014.7 - 0.0 - - - - - - -
23/08:00am 26.4 S 8 11 1014.7 - 0.0 - - - - - - -
23/07:30am 25.8 S 9 12 1014.4 - 0.0 - - - - - - -
23/07:00am 25.0 S 9 12 1013.9 - 0.0 - - - - - - -
23/06:30am 24.7 S 8 10 1013.5 - 0.0 - - - - - - -
23/06:00am 24.6 SSW 6 8 1013.2 - 0.0 - - - - - - -
23/05:30am 24.6 S 6 8 1012.9 - 0.0 - - - - - - -
23/05:00am 24.7 S 6 9 1012.6 - 0.0 - - - - - - -
23/04:30am 24.9 S 6 9 1012.4 - 0.0 - - - - - - -
23/04:00am 25.1 W 3 6 1012.3 - 0.0 - - - - - - -
23/03:30am 25.0 WSW 4 7 1012.4 - 0.0 - - - - - - -
23/03:00am 25.6 NE 7 9 1012.2 - 0.0 - - - - - - -
23/02:30am 25.2 NE 5 6 1012.6 - 0.0 - - - - - - -
23/02:00am 25.6 NNE 6 9 1012.8 - 0.0 - - - - - - -
23/01:30am 26.0 NNE 10 13 1012.8 - 0.0 - - - - - - -
23/01:00am 26.1 NNE 12 16 1013.2 - 0.0 - - - - - - -
23/12:30am 26.0 NNE 11 16 1013.7 - 0.0 - - - - - - -
23/12:00am 26.1 NNE 11 16 1014.0 - 0.0 - - - - - - -
 
Date/Time
CST
Temp

°C
Wind Pressure Rain
since 9am
mm
Weather Cloud Vis
km
Sea
Height
m
Swell
Dir
 
Speed
knots
Gust
knots
hPa Trend Height
m
Period
s
Dir
22/11:30pm 25.9 NNE 9 13 1014.3 - 0.0 - - - - - - -
22/11:00pm 26.1 NE 11 15 1014.7 - 0.0 - - - - - - -
22/10:30pm 26.2 ENE 13 17 1015.0 - 0.0 - - - - - - -
22/10:00pm 26.3 ENE 13 16 1014.9 - 0.0 - - - - - - -
22/09:30pm 26.5 NE 13 16 1014.5 - 0.0 - - - - - - -
22/09:00pm 26.5 NNE 14 17 1014.1 - 0.0 - - - - - - -
22/08:30pm 26.3 NNE 11 14 1014.0 - 0.0 - - - - - - -
22/08:00pm 26.5 NE 11 14 1014.1 - 0.0 - - - - - - -
22/07:30pm 26.7 NE 11 13 1013.9 - 0.0 - - - - - - -
22/07:00pm 26.8 NE 10 13 1013.7 - 0.0 - - - - - - -
22/06:30pm 27.1 NE 10 14 1013.5 - 0.0 - - - - - - -
22/06:00pm 27.7 NNE 12 15 1013.2 - 0.0 - - - - - - -
22/05:30pm 28.4 NNE 11 14 1012.9 - 0.0 - - - - - - -
22/05:00pm 28.9 NNE 12 15 1012.7 - 0.0 - - - - - - -
22/04:30pm 29.4 NE 13 17 1012.7 - 0.0 - - - - - - -
22/04:00pm 30.0 NNE 13 17 1012.6 - 0.0 - - - - - - -
22/03:30pm 30.4 NE 15 18 1012.7 - 0.0 - - - - - - -
22/03:00pm 31.1 NNE 12 17 1012.9 - 0.0 - - - - - - -
22/02:30pm 31.4 NNE 11 16 1013.2 - 0.0 - - - - - - -
22/02:00pm 31.4 NNE 13 17 1013.3 - 0.0 - - - - - - -
22/01:30pm 31.2 NE 12 15 1013.9 - 0.0 - - - - - - -
22/01:00pm 31.7 NE 12 16 1014.4 - 0.0 - - - - - - -
22/12:30pm 31.5 NNE 13 17 1014.8 - 0.0 - - - - - - -
22/12:00pm 31.3 NE 13 17 1015.2 - 0.0 - - - - - - -
22/11:30am 31.1 NE 14 19 1015.4 - 0.0 - - - - - - -
22/11:00am 31.9 ENE 16 21 1015.7 - 0.0 - - - - - - -
22/10:30am 31.5 ENE 15 20 1015.9 - 0.0 - - - - - - -
22/10:00am 30.1 E 8 14 1015.9 - 0.0 - - - - - - -
22/09:30am 28.8 SE 5 7 1015.9 - 0.0 - - - - - - -
22/09:00am 28.2 SW 6 7 1015.2 - 0.0 - - - - - - -
22/08:30am 27.3 WSW 7 9 1015.1 - 0.0 - - - - - - -
22/08:00am 27.1 S 8 10 1015.1 - 0.0 - - - - - - -
22/07:30am 26.2 SSW 6 8 1014.8 - 0.0 - - - - - - -
22/07:00am 25.5 SSW 7 9 1014.6 - 0.0 - - - - - - -
22/06:30am 25.0 SSW 9 12 1014.3 - 0.0 - - - - - - -
22/06:00am 24.4 SSW 8 11 1014.0 - 0.0 - - - - - - -
22/05:30am 24.4 SSW 9 11 1013.8 - 0.0 - - - - - - -
22/05:00am 24.6 S 9 11 1013.5 - 0.0 - - - - - - -
22/04:30am 24.7 SSW 6 9 1013.1 - 0.0 - - - - - - -
22/04:00am 24.6 WNW 5 6 1013.0 - 0.0 - - - - - - -

Other Formats:

Comma delimited format used in spreadsheet applications
http://www.bom.gov.au/fwo/IDD60701/IDD60701.94248.axf

JavaScript Object Notation format (JSON) in row-major order
http://www.bom.gov.au/fwo/IDD60701/IDD60701.94248.json